Time;durP1;ratioP1;P1;durP2;ratioP2;P2;SDS_P1;SDS_P2;PMS_P1;PMS_P2;Temp;Humidity;BMP_temperature;BMP_pressure;BME280_temperature;BME280_humidity;BME280_pressure;Samples;Min_cycle;Max_cycle;Signal;HPM_P1;HPM_P2
2023/09/19 00:00:33;;;;;;;3.00;1.40;;;18.60;98.00;;;;;;5015317;28;20448;-68
2023/09/19 00:03:01;;;;;;;2.70;1.57;;;18.50;98.00;;;;;;5014969;28;20458;-68
2023/09/19 00:05:31;;;;;;;2.47;1.50;;;18.60;98.00;;;;;;4997928;28;20491;-68
2023/09/19 00:07:59;;;;;;;3.43;1.50;;;18.50;98.00;;;;;;5015086;28;20452;-68
2023/09/19 00:10:26;;;;;;;3.10;1.60;;;18.60;98.00;;;;;;4997383;28;21019;-68
2023/09/19 00:12:55;;;;;;;3.77;1.63;;;18.60;98.00;;;;;;5014611;28;20535;-68
2023/09/19 00:15:23;;;;;;;1.60;1.30;;;18.60;98.00;;;;;;5014741;28;20454;-68
2023/09/19 00:17:52;;;;;;;1.73;1.50;;;18.70;98.00;;;;;;5014606;28;20456;-68
2023/09/19 00:20:21;;;;;;;1.40;1.30;;;18.70;98.00;;;;;;5014621;28;20444;-68
2023/09/19 00:22:50;;;;;;;1.93;1.50;;;18.70;98.00;;;;;;5014631;28;20525;-68
2023/09/19 00:25:18;;;;;;;2.00;1.50;;;18.70;98.00;;;;;;5014766;28;20476;-68
2023/09/19 00:27:46;;;;;;;1.80;1.50;;;18.70;98.00;;;;;;5014428;28;20526;-69
2023/09/19 00:30:19;;;;;;;2.53;1.57;;;18.60;98.00;;;;;;5014357;28;20459;-68
2023/09/19 00:32:47;;;;;;;2.60;1.80;;;18.50;98.00;;;;;;5014568;28;20463;-68
2023/09/19 00:35:16;;;;;;;1.70;1.47;;;18.60;98.00;;;;;;5014139;28;20447;-68
2023/09/19 00:37:43;;;;;;;6.90;1.50;;;18.70;98.00;;;;;;5014135;28;20550;-68
2023/09/19 00:40:12;;;;;;;2.00;1.60;;;18.80;98.00;;;;;;5014541;28;20946;-68
2023/09/19 00:42:40;;;;;;;1.83;1.40;;;18.70;98.00;;;;;;5013894;28;20456;-68
2023/09/19 00:45:11;;;;;;;2.13;1.70;;;18.60;98.00;;;;;;5013945;28;20535;-69
2023/09/19 00:47:38;;;;;;;1.57;1.47;;;18.60;98.00;;;;;;5013862;28;20932;-68
2023/09/19 00:50:08;;;;;;;1.87;1.60;;;18.50;98.00;;;;;;4996705;28;20522;-68
2023/09/19 00:52:36;;;;;;;1.60;1.40;;;18.60;98.00;;;;;;5014070;28;20550;-68
2023/09/19 00:55:04;;;;;;;4.13;1.80;;;18.50;98.00;;;;;;5013636;28;20456;-68
2023/09/19 00:57:33;;;;;;;1.80;1.50;;;18.60;98.00;;;;;;5013054;28;20498;-68
2023/09/19 01:00:04;;;;;;;1.97;1.57;;;18.40;98.00;;;;;;5013755;28;20502;-69
2023/09/19 01:02:32;;;;;;;2.30;1.40;;;18.40;98.00;;;;;;4996808;28;20460;-68
2023/09/19 01:05:00;;;;;;;1.80;1.43;;;18.40;98.00;;;;;;5013663;28;20459;-68
2023/09/19 01:07:29;;;;;;;1.97;1.63;;;18.40;98.00;;;;;;5013584;28;20578;-68
2023/09/19 01:09:59;;;;;;;1.60;1.40;;;18.50;98.00;;;;;;5013532;28;20490;-68
2023/09/19 01:12:49;;;;;;;1.60;1.40;;;18.50;98.00;;;;;;5013571;28;20486;-68
2023/09/19 01:15:25;;;;;;;1.73;1.40;;;18.40;98.00;;;;;;4996216;28;20530;-68
2023/09/19 01:18:00;;;;;;;1.90;1.33;;;18.40;98.00;;;;;;5013338;28;20451;-68
2023/09/19 01:20:37;;;;;;;1.50;1.40;;;18.50;98.00;;;;;;5012003;28;20473;-70
2023/09/19 01:23:15;;;;;;;1.67;1.40;;;18.50;98.00;;;;;;5013047;28;20518;-68
2023/09/19 01:26:15;;;;;;;1.73;1.40;;;18.50;98.00;;;;;;5013122;28;20538;-68
2023/09/19 01:28:55;;;;;;;1.60;1.20;;;18.50;98.00;;;;;;5013210;28;20459;-68
2023/09/19 01:31:29;;;;;;;1.70;1.43;;;18.50;98.00;;;;;;5013425;28;20664;-70
2023/09/19 01:34:01;;;;;;;2.03;1.40;;;18.50;98.00;;;;;;5013247;28;20455;-68
2023/09/19 01:36:35;;;;;;;1.70;1.40;;;18.50;98.00;;;;;;5013347;28;20452;-68
2023/09/19 01:39:10;;;;;;;1.50;1.40;;;18.40;98.00;;;;;;4996056;28;20465;-68
2023/09/19 01:41:48;;;;;;;4.13;1.40;;;18.40;98.00;;;;;;5013011;28;20462;-68
2023/09/19 01:44:23;;;;;;;1.90;1.37;;;18.50;98.00;;;;;;4996638;28;20463;-68
2023/09/19 01:46:52;;;;;;;3.10;1.50;;;18.40;98.00;;;;;;5012940;28;20840;-68
2023/09/19 01:49:28;;;;;;;1.87;1.50;;;18.40;98.00;;;;;;5012794;28;20456;-68
2023/09/19 01:52:06;;;;;;;2.50;1.60;;;18.50;98.00;;;;;;5013098;28;20459;-68
2023/09/19 01:54:51;;;;;;;1.70;1.30;;;18.40;98.00;;;;;;5013194;28;20956;-68
2023/09/19 01:57:29;;;;;;;2.57;1.40;;;18.50;98.00;;;;;;5012971;28;20530;-68
2023/09/19 02:00:06;;;;;;;2.03;1.60;;;18.50;98.00;;;;;;5013008;28;20638;-68
2023/09/19 02:02:35;;;;;;;2.00;1.40;;;18.50;98.00;;;;;;5012961;28;20455;-68
2023/09/19 02:05:03;;;;;;;2.90;1.50;;;18.60;98.00;;;;;;4995883;28;20945;-67
2023/09/19 02:07:31;;;;;;;1.40;1.30;;;18.50;98.00;;;;;;5012573;28;20562;-68
2023/09/19 02:09:59;;;;;;;1.60;1.30;;;18.50;98.00;;;;;;5012382;28;20460;-68
2023/09/19 02:12:27;;;;;;;1.70;1.30;;;18.40;98.00;;;;;;5012674;28;20498;-68
2023/09/19 02:14:54;;;;;;;1.40;1.33;;;18.50;98.00;;;;;;4994737;28;20458;-68
2023/09/19 02:17:21;;;;;;;1.67;1.53;;;18.60;98.00;;;;;;5012246;28;20471;-68
2023/09/19 02:19:49;;;;;;;3.30;1.60;;;18.60;98.00;;;;;;5012729;28;20451;-68
2023/09/19 02:22:16;;;;;;;1.60;1.37;;;18.60;98.00;;;;;;4994825;28;20527;-68
2023/09/19 02:24:43;;;;;;;1.57;1.30;;;18.60;98.00;;;;;;5012268;28;20456;-68
2023/09/19 02:27:12;;;;;;;2.67;1.40;;;18.50;98.00;;;;;;5011998;28;20515;-68
2023/09/19 02:29:39;;;;;;;1.40;1.40;;;18.50;98.00;;;;;;4995089;28;20551;-68
2023/09/19 02:32:07;;;;;;;1.93;1.50;;;18.50;98.00;;;;;;5012143;28;20458;-68
2023/09/19 02:34:38;;;;;;;1.90;1.43;;;18.60;98.00;;;;;;5012341;28;20451;-68
2023/09/19 02:37:08;;;;;;;2.03;1.40;;;18.50;98.00;;;;;;5012044;28;20821;-68
2023/09/19 02:39:36;;;;;;;1.77;1.30;;;18.60;98.00;;;;;;5012039;28;20498;-68
2023/09/19 02:42:03;;;;;;;2.87;1.50;;;18.50;98.00;;;;;;5012027;28;20463;-68
2023/09/19 02:44:31;;;;;;;2.33;1.43;;;18.50;98.00;;;;;;5012279;28;20842;-68
2023/09/19 02:46:58;;;;;;;2.20;1.60;;;18.50;98.00;;;;;;4994398;28;20490;-68
2023/09/19 02:49:26;;;;;;;3.70;1.70;;;18.40;98.00;;;;;;5011982;28;20550;-68
2023/09/19 02:51:53;;;;;;;2.40;1.40;;;18.40;98.00;;;;;;5012180;28;20455;-68
2023/09/19 02:54:23;;;;;;;2.03;1.57;;;18.40;98.00;;;;;;5012129;28;20451;-68
2023/09/19 02:56:53;;;;;;;2.00;1.50;;;18.30;98.00;;;;;;5011982;28;20920;-68
2023/09/19 02:59:21;;;;;;;2.30;1.57;;;18.30;98.00;;;;;;5012184;28;20525;-68
2023/09/19 03:01:50;;;;;;;1.90;1.50;;;18.30;98.00;;;;;;5011971;28;20452;-68
2023/09/19 03:04:19;;;;;;;2.07;1.57;;;18.40;98.00;;;;;;5012108;28;20530;-68
2023/09/19 03:06:48;;;;;;;4.40;1.63;;;18.30;98.00;;;;;;4994685;28;20577;-68
2023/09/19 03:09:16;;;;;;;5.23;1.70;;;18.30;98.00;;;;;;5011957;28;20452;-68
2023/09/19 03:11:46;;;;;;;2.13;1.33;;;18.30;98.00;;;;;;4994547;28;20494;-68
2023/09/19 03:14:15;;;;;;;1.50;1.30;;;18.30;98.00;;;;;;5012013;28;20539;-68
2023/09/19 03:16:44;;;;;;;2.77;1.60;;;18.30;98.00;;;;;;5011847;28;20462;-68
2023/09/19 03:19:12;;;;;;;1.57;1.47;;;18.20;98.00;;;;;;4995850;28;20451;-68
2023/09/19 03:21:39;;;;;;;1.60;1.40;;;18.20;98.00;;;;;;5015806;28;20849;-68
2023/09/19 03:24:07;;;;;;;1.63;1.33;;;18.20;98.00;;;;;;5015714;28;20455;-68
2023/09/19 03:26:34;;;;;;;1.40;1.20;;;18.20;98.00;;;;;;4998233;28;20487;-68
2023/09/19 03:29:07;;;;;;;1.97;1.60;;;18.30;98.00;;;;;;5015673;28;20454;-68
2023/09/19 03:31:36;;;;;;;1.70;1.60;;;18.20;98.00;;;;;;5014202;28;20489;-68
2023/09/19 03:34:05;;;;;;;2.70;1.40;;;18.20;98.00;;;;;;5015502;28;20550;-68
2023/09/19 03:36:34;;;;;;;2.20;1.70;;;18.20;98.00;;;;;;5015634;28;20530;-68
2023/09/19 03:39:02;;;;;;;2.10;1.70;;;18.30;98.00;;;;;;4998326;28;20452;-68
2023/09/19 03:41:31;;;;;;;2.27;1.70;;;18.20;98.00;;;;;;5015377;28;20505;-68
2023/09/19 03:43:58;;;;;;;1.77;1.40;;;18.20;98.00;;;;;;4998108;28;20510;-68
2023/09/19 03:46:30;;;;;;;1.60;1.60;;;18.20;98.00;;;;;;5015232;28;20996;-68
2023/09/19 03:48:57;;;;;;;1.67;1.50;;;18.20;98.00;;;;;;5015289;28;20942;-68
2023/09/19 03:51:24;;;;;;;1.77;1.57;;;18.10;98.00;;;;;;5015229;28;20463;-68
2023/09/19 03:53:51;;;;;;;2.57;1.60;;;18.20;98.00;;;;;;5015037;28;20933;-68
2023/09/19 03:56:18;;;;;;;2.23;1.70;;;18.10;98.00;;;;;;5014970;28;20463;-68
2023/09/19 03:58:45;;;;;;;3.80;2.07;;;18.10;98.00;;;;;;5014837;28;20459;-68
2023/09/19 04:01:13;;;;;;;3.77;1.83;;;18.20;98.00;;;;;;5014990;28;20455;-68
2023/09/19 04:03:47;;;;;;;3.23;1.60;;;18.20;98.00;;;;;;5014913;28;20447;-68
2023/09/19 04:06:14;;;;;;;3.80;1.80;;;18.20;98.00;;;;;;5014702;28;20508;-68
2023/09/19 04:08:41;;;;;;;1.60;1.50;;;18.10;98.00;;;;;;5014566;28;20451;-68
2023/09/19 04:11:09;;;;;;;2.00;1.67;;;18.20;98.00;;;;;;5014711;28;20897;-68
2023/09/19 04:13:36;;;;;;;2.43;1.77;;;18.20;98.00;;;;;;4997424;28;20452;-68
2023/09/19 04:16:03;;;;;;;2.17;1.70;;;18.10;98.00;;;;;;5014706;28;20467;-68
2023/09/19 04:18:33;;;;;;;1.90;1.60;;;18.20;98.00;;;;;;5014565;28;20452;-68
2023/09/19 04:21:04;;;;;;;1.67;1.50;;;18.20;98.00;;;;;;5014276;28;20498;-68
2023/09/19 04:23:31;;;;;;;2.47;1.80;;;18.10;98.00;;;;;;5014478;28;21031;-68
2023/09/19 04:25:58;;;;;;;2.10;1.90;;;18.30;98.00;;;;;;5014330;28;20934;-68
2023/09/19 04:28:27;;;;;;;2.70;1.83;;;18.30;98.00;;;;;;4996918;28;20521;-68
2023/09/19 04:30:54;;;;;;;1.63;1.50;;;18.40;98.00;;;;;;5013108;28;20499;-68
2023/09/19 04:33:22;;;;;;;2.67;1.70;;;18.50;98.00;;;;;;4997225;28;20460;-68
2023/09/19 04:35:50;;;;;;;4.00;1.83;;;18.50;98.00;;;;;;4997011;28;20535;-68
2023/09/19 04:38:19;;;;;;;2.20;1.70;;;18.50;98.00;;;;;;5013990;28;20452;-68
2023/09/19 04:40:47;;;;;;;1.93;1.70;;;18.50;98.00;;;;;;5013987;28;20984;-68
2023/09/19 04:43:15;;;;;;;1.77;1.60;;;18.50;98.00;;;;;;5014102;28;20452;-68
2023/09/19 04:45:42;;;;;;;2.43;1.70;;;18.50;98.00;;;;;;4996752;28;20984;-68
2023/09/19 04:48:10;;;;;;;2.13;1.57;;;18.40;98.00;;;;;;4980617;28;20487;-68
2023/09/19 04:50:38;;;;;;;4.03;1.80;;;18.30;98.00;;;;;;5014196;28;20456;-68
2023/09/19 04:53:06;;;;;;;1.97;1.57;;;18.30;98.00;;;;;;5013945;28;20462;-68
2023/09/19 04:55:36;;;;;;;9.33;1.70;;;18.10;98.00;;;;;;5013916;28;20965;-68
2023/09/19 04:58:04;;;;;;;2.30;1.70;;;18.00;98.00;;;;;;5013818;28;20462;-68
2023/09/19 05:00:34;;;;;;;4.10;1.83;;;18.00;98.00;;;;;;5014041;28;20455;-68
2023/09/19 05:03:04;;;;;;;1.53;1.47;;;18.00;98.00;;;;;;5013866;28;20456;-68
2023/09/19 05:05:31;;;;;;;2.40;1.63;;;18.20;98.00;;;;;;5013861;28;20452;-68
2023/09/19 05:07:59;;;;;;;2.27;1.80;;;18.20;98.00;;;;;;5013553;28;20982;-68
2023/09/19 05:10:26;;;;;;;3.93;1.70;;;18.20;98.00;;;;;;5013705;28;20538;-68
2023/09/19 05:12:55;;;;;;;1.70;1.60;;;18.20;98.00;;;;;;5013775;28;20467;-68
2023/09/19 05:15:22;;;;;;;3.20;1.70;;;18.20;98.00;;;;;;5013996;28;20542;-68
2023/09/19 05:17:51;;;;;;;11.03;1.77;;;18.30;98.00;;;;;;4980040;28;20455;-68
2023/09/19 05:20:24;;;;;;;2.07;1.70;;;18.30;98.00;;;;;;5013952;28;20459;-68
2023/09/19 05:22:58;;;;;;;4.27;1.70;;;18.20;98.00;;;;;;5013626;28;20458;-68
2023/09/19 05:25:29;;;;;;;2.33;1.73;;;18.30;98.00;;;;;;5013977;28;20547;-68
2023/09/19 05:27:58;;;;;;;3.30;2.10;;;18.30;98.00;;;;;;4996446;28;20487;-68
2023/09/19 05:30:27;;;;;;;1.83;1.70;;;18.30;98.00;;;;;;5013679;28;20859;-68
2023/09/19 05:32:55;;;;;;;2.10;1.57;;;18.40;98.00;;;;;;4980392;28;20512;-68
2023/09/19 05:35:23;;;;;;;1.60;1.50;;;18.40;98.00;;;;;;5012849;28;20452;-68
2023/09/19 05:37:51;;;;;;;2.07;1.70;;;18.30;98.00;;;;;;5012580;28;20463;-68
2023/09/19 05:40:19;;;;;;;2.13;1.50;;;18.30;98.00;;;;;;5012691;28;21015;-68
2023/09/19 05:42:47;;;;;;;3.53;1.90;;;18.20;98.00;;;;;;5012076;28;20463;-69
2023/09/19 05:45:18;;;;;;;2.43;1.90;;;18.10;98.00;;;;;;5011617;28;20471;-69
2023/09/19 05:47:46;;;;;;;2.20;1.80;;;18.00;98.00;;;;;;5012143;28;20582;-68
2023/09/19 05:50:14;;;;;;;1.60;1.47;;;18.00;98.00;;;;;;5012063;28;20566;-68
2023/09/19 05:52:44;;;;;;;1.77;1.70;;;18.10;98.00;;;;;;5012748;28;21000;-68
2023/09/19 05:55:14;;;;;;;2.43;1.70;;;18.20;98.00;;;;;;5012866;28;20447;-69
2023/09/19 05:57:42;;;;;;;2.53;1.60;;;18.00;98.00;;;;;;5012443;28;20452;-68
2023/09/19 06:00:11;;;;;;;2.60;1.70;;;17.90;98.00;;;;;;5012760;28;20977;-68
2023/09/19 06:02:41;;;;;;;2.13;1.80;;;17.80;98.00;;;;;;4979321;28;20511;-69
2023/09/19 06:05:10;;;;;;;2.63;1.90;;;17.80;98.00;;;;;;5012713;28;20451;-69
2023/09/19 06:07:37;;;;;;;1.63;1.57;;;17.70;98.00;;;;;;5012187;28;20479;-68
2023/09/19 06:10:09;;;;;;;6.23;2.40;;;17.90;98.00;;;;;;5012524;28;20782;-69
2023/09/19 06:12:39;;;;;;;2.00;1.80;;;17.90;98.00;;;;;;5012485;28;20546;-69
2023/09/19 06:15:08;;;;;;;3.93;1.63;;;17.90;98.00;;;;;;5012406;28;20930;-68
2023/09/19 06:17:37;;;;;;;2.17;1.87;;;17.80;98.00;;;;;;5012534;28;20456;-67
2023/09/19 06:20:12;;;;;;;1.83;1.60;;;17.70;98.00;;;;;;5012309;28;20525;-69
2023/09/19 06:22:41;;;;;;;2.60;1.93;;;17.40;98.00;;;;;;5012328;28;20459;-69
2023/09/19 06:25:11;;;;;;;2.63;1.90;;;17.20;98.00;;;;;;5012468;28;20447;-69
2023/09/19 06:27:39;;;;;;;3.70;2.20;;;17.00;98.00;;;;;;5012435;28;20948;-68
2023/09/19 06:30:08;;;;;;;2.10;1.70;;;16.80;98.00;;;;;;5012456;28;20474;-69
2023/09/19 06:32:35;;;;;;;2.90;1.93;;;16.80;98.00;;;;;;4995102;28;20447;-69
2023/09/19 06:35:02;;;;;;;3.93;2.10;;;16.70;98.00;;;;;;5012452;28;20792;-69
2023/09/19 06:37:31;;;;;;;2.40;1.87;;;16.60;98.00;;;;;;5012356;28;20455;-68
2023/09/19 06:39:58;;;;;;;3.07;2.20;;;16.60;98.00;;;;;;5012387;28;20934;-68
2023/09/19 06:42:25;;;;;;;8.10;2.20;;;16.60;98.00;;;;;;5012442;28;20447;-69
2023/09/19 06:44:52;;;;;;;2.80;2.03;;;16.40;98.00;;;;;;5012160;28;20533;-69
2023/09/19 06:47:20;;;;;;;4.13;2.23;;;16.40;98.00;;;;;;5012237;28;20488;-69
2023/09/19 06:49:47;;;;;;;3.13;2.00;;;16.30;98.00;;;;;;5012242;28;20487;-68
2023/09/19 06:52:15;;;;;;;4.20;2.30;;;16.40;98.00;;;;;;5012137;28;21056;-61
2023/09/19 06:54:43;;;;;;;3.83;2.00;;;16.50;98.00;;;;;;5013950;28;20501;-62
2023/09/19 06:57:11;;;;;;;3.77;2.07;;;16.50;98.00;;;;;;5016324;28;20458;-61
2023/09/19 06:59:38;;;;;;;2.43;1.97;;;16.50;98.00;;;;;;5016288;28;20454;-62
2023/09/19 07:02:06;;;;;;;3.70;2.40;;;16.50;98.00;;;;;;4998922;28;20457;-61
2023/09/19 07:04:34;;;;;;;3.73;2.20;;;16.50;98.00;;;;;;5016456;28;20451;-61
2023/09/19 07:07:01;;;;;;;3.20;1.87;;;16.60;98.00;;;;;;4999169;28;20452;-60
2023/09/19 07:09:28;;;;;;;3.03;2.00;;;16.80;98.00;;;;;;5016202;28;20451;-61
2023/09/19 07:11:57;;;;;;;6.17;2.20;;;16.90;98.00;;;;;;5015614;28;20462;-62
2023/09/19 07:14:24;;;;;;;2.53;1.93;;;17.00;98.00;;;;;;5016466;28;20466;-62
2023/09/19 07:16:51;;;;;;;2.67;2.13;;;17.00;98.00;;;;;;5015617;28;20458;-61
2023/09/19 07:19:19;;;;;;;3.10;1.93;;;17.20;98.00;;;;;;5015713;28;20467;-62
2023/09/19 07:21:47;;;;;;;3.50;2.03;;;17.40;98.00;;;;;;5016039;28;20510;-62
2023/09/19 07:24:14;;;;;;;3.57;2.00;;;17.40;98.00;;;;;;5015511;28;20538;-61
2023/09/19 07:26:41;;;;;;;4.23;2.50;;;17.50;98.00;;;;;;5015276;28;20457;-61
2023/09/19 07:29:11;;;;;;;8.20;2.50;;;17.70;98.00;;;;;;5015176;28;20545;-62
2023/09/19 07:31:38;;;;;;;3.70;2.30;;;17.80;98.00;;;;;;4997975;28;20459;-61
2023/09/19 07:34:08;;;;;;;4.07;2.17;;;18.00;98.00;;;;;;4998127;28;20463;-62
2023/09/19 07:36:37;;;;;;;3.53;2.20;;;18.00;98.00;;;;;;5015662;28;20833;-61
2023/09/19 07:39:06;;;;;;;4.30;2.23;;;18.10;98.00;;;;;;5015299;28;21451;-61
2023/09/19 07:41:33;;;;;;;3.47;2.07;;;18.10;98.00;;;;;;5015468;28;20443;-62
2023/09/19 07:44:00;;;;;;;3.77;2.20;;;18.20;98.00;;;;;;5015054;28;20999;-61
2023/09/19 07:46:31;;;;;;;2.87;2.23;;;18.20;98.00;;;;;;5015311;28;20465;-61
2023/09/19 07:48:58;;;;;;;2.83;2.13;;;18.20;98.00;;;;;;5014982;28;20493;-61
2023/09/19 07:51:26;;;;;;;11.83;2.00;;;18.30;98.00;;;;;;5015284;28;20827;-61
2023/09/19 07:53:54;;;;;;;2.20;2.00;;;18.40;98.00;;;;;;5013588;28;20517;-62
2023/09/19 07:56:22;;;;;;;3.40;2.20;;;18.40;98.00;;;;;;5015071;28;20542;-61
2023/09/19 07:58:50;;;;;;;3.07;2.23;;;18.50;98.00;;;;;;5014910;28;20798;-64
2023/09/19 08:01:17;;;;;;;3.03;1.90;;;18.50;98.00;;;;;;5015214;28;20463;-64
2023/09/19 08:03:45;;;;;;;4.90;2.50;;;18.50;98.00;;;;;;5014833;28;20459;-64
2023/09/19 08:06:14;;;;;;;3.20;2.10;;;18.70;98.00;;;;;;5014390;28;20509;-64
2023/09/19 08:08:41;;;;;;;2.40;2.17;;;18.80;98.00;;;;;;5014695;28;20574;-64
2023/09/19 08:11:11;;;;;;;3.17;2.40;;;19.00;98.00;;;;;;5014428;28;20443;-63
2023/09/19 08:13:43;;;;;;;3.13;2.20;;;18.90;98.00;;;;;;5014736;28;20451;-64
2023/09/19 08:16:10;;;;;;;2.40;2.10;;;19.10;98.00;;;;;;5014723;28;20475;-64
2023/09/19 08:18:39;;;;;;;3.07;2.10;;;19.20;98.00;;;;;;5014087;28;20482;-64
2023/09/19 08:21:10;;;;;;;1.83;1.73;;;19.20;98.00;;;;;;5014535;28;20846;-64
2023/09/19 08:23:38;;;;;;;2.40;1.90;;;19.20;98.00;;;;;;5014437;28;20456;-64
2023/09/19 08:26:07;;;;;;;3.03;2.10;;;19.20;98.00;;;;;;4997121;28;20451;-64
2023/09/19 08:28:35;;;;;;;5.53;2.00;;;19.40;98.00;;;;;;4997559;28;20515;-64
2023/09/19 08:31:05;;;;;;;2.63;2.03;;;19.40;98.00;;;;;;5014371;28;20451;-64
2023/09/19 08:33:33;;;;;;;3.03;1.90;;;19.50;98.00;;;;;;5014436;28;20456;-63
2023/09/19 08:36:01;;;;;;;5.00;2.17;;;19.60;98.00;;;;;;5014461;28;20494;-63
2023/09/19 08:38:30;;;;;;;2.40;1.90;;;19.80;98.00;;;;;;5014483;28;20471;-64
2023/09/19 08:40:59;;;;;;;4.00;2.10;;;19.70;98.00;;;;;;5014370;28;20494;-64
2023/09/19 08:43:26;;;;;;;4.17;2.30;;;19.80;98.00;;;;;;5217002;22;20529;-64
2023/09/19 08:48:28;;;;;;;4.07;2.30;;;20.00;98.00;;;;;;5005670;28;20523;-63
2023/09/19 08:51:02;;;;;;;2.27;1.93;;;20.00;98.00;;;;;;5013691;28;20455;-63
2023/09/19 08:53:37;;;;;;;2.77;2.03;;;20.10;98.00;;;;;;5013311;28;20447;-63
2023/09/19 08:56:07;;;;;;;2.47;1.83;;;20.10;98.00;;;;;;5013137;28;20451;-63
2023/09/19 08:58:44;;;;;;;2.93;2.10;;;20.20;98.00;;;;;;5013259;28;20455;-63
2023/09/19 09:01:14;;;;;;;3.00;1.97;;;20.20;98.00;;;;;;5012833;28;20474;-63
2023/09/19 09:03:46;;;;;;;3.47;2.40;;;20.40;98.00;;;;;;5013225;28;20513;-63
2023/09/19 09:06:15;;;;;;;4.20;2.20;;;20.30;98.00;;;;;;5013006;28;20529;-63
2023/09/19 09:08:44;;;;;;;2.93;2.20;;;20.20;98.00;;;;;;5012829;28;20487;-63
2023/09/19 09:11:12;;;;;;;2.77;2.10;;;20.10;98.00;;;;;;5012821;28;20541;-63
2023/09/19 09:13:41;;;;;;;4.20;2.20;;;20.00;98.00;;;;;;5012816;28;20475;-63
2023/09/19 09:16:12;;;;;;;3.77;1.90;;;19.90;98.00;;;;;;5012396;28;20467;-63
2023/09/19 09:18:39;;;;;;;4.30;2.10;;;19.80;98.00;;;;;;5012347;28;20506;-63
2023/09/19 09:21:06;;;;;;;2.63;2.03;;;19.90;98.00;;;;;;5012622;28;20498;-63
2023/09/19 09:23:33;;;;;;;2.67;1.97;;;19.70;98.00;;;;;;5012579;28;20452;-63
2023/09/19 09:26:05;;;;;;;2.30;2.00;;;19.60;98.00;;;;;;5012198;28;20448;-63
2023/09/19 09:28:35;;;;;;;3.03;2.03;;;19.60;98.00;;;;;;5012693;28;20869;-64
2023/09/19 09:31:07;;;;;;;2.17;1.83;;;19.60;98.00;;;;;;5012560;28;20456;-63
2023/09/19 09:33:35;;;;;;;3.13;2.00;;;19.60;98.00;;;;;;5012585;28;20447;-64
2023/09/19 09:36:06;;;;;;;4.67;2.30;;;19.60;98.00;;;;;;5012371;28;20459;-64
2023/09/19 09:38:46;;;;;;;3.10;2.10;;;19.60;98.00;;;;;;5012167;28;20465;-63
2023/09/19 09:41:27;;;;;;;3.37;2.10;;;19.70;98.00;;;;;;5012347;28;20817;-65
2023/09/19 09:43:55;;;;;;;3.93;1.97;;;19.90;98.00;;;;;;5012199;28;20543;-63
2023/09/19 09:46:58;;;;;;;2.23;1.87;;;20.00;98.00;;;;;;5012106;28;20474;-63
2023/09/19 09:49:26;;;;;;;2.23;1.90;;;20.10;98.00;;;;;;5011402;28;20632;-63
2023/09/19 09:52:05;;;;;;;3.90;1.83;;;20.10;98.00;;;;;;5012254;28;20570;-63
2023/09/19 09:54:36;;;;;;;3.87;2.37;;;20.20;98.00;;;;;;5012069;28;20953;-63
2023/09/19 09:57:16;;;;;;;2.13;2.03;;;20.20;98.00;;;;;;5011907;28;20530;-63
2023/09/19 09:59:55;;;;;;;4.30;2.20;;;20.00;98.00;;;;;;5011949;28;20761;-63
2023/09/19 10:02:29;;;;;;;2.50;1.90;;;20.00;98.00;;;;;;5012078;28;20455;-63
2023/09/19 10:05:09;;;;;;;2.00;1.70;;;20.10;98.00;;;;;;5011902;28;20458;-62
2023/09/19 10:07:40;;;;;;;6.23;2.10;;;20.10;98.00;;;;;;5010952;28;20466;-63
2023/09/19 10:10:16;;;;;;;2.70;2.00;;;20.20;98.00;;;;;;5011770;28;20586;-62
2023/09/19 10:13:02;;;;;;;5.73;1.87;;;20.30;98.00;;;;;;5010663;28;20863;-63
2023/09/19 10:15:33;;;;;;;3.27;2.10;;;20.30;98.00;;;;;;5010709;28;20454;-63
2023/09/19 10:18:02;;;;;;;3.10;2.20;;;20.50;98.00;;;;;;5011701;28;20459;-63
2023/09/19 10:20:38;;;;;;;3.43;2.00;;;20.40;98.00;;;;;;5011734;28;20446;-63
2023/09/19 10:23:10;;;;;;;2.33;1.97;;;20.70;98.00;;;;;;5011808;28;20455;-63
2023/09/19 10:25:38;;;;;;;2.47;1.80;;;21.00;98.00;;;;;;5011959;28;20505;-63
2023/09/19 10:28:14;;;;;;;3.43;2.20;;;21.00;98.00;;;;;;5011693;28;20456;-63
2023/09/19 10:30:44;;;;;;;2.37;1.90;;;21.20;98.00;;;;;;5011744;28;20499;-63
2023/09/19 10:33:12;;;;;;;2.47;1.97;;;21.60;98.00;;;;;;5011506;28;20554;-63
2023/09/19 10:35:42;;;;;;;9.23;2.23;;;21.70;98.00;;;;;;5011771;28;20459;-63
2023/09/19 10:38:12;;;;;;;3.07;1.80;;;21.60;98.00;;;;;;5011495;28;20540;-62
2023/09/19 10:40:43;;;;;;;3.00;2.20;;;21.90;98.00;;;;;;5011467;28;20458;-62
2023/09/19 10:43:17;;;;;;;3.90;2.30;;;21.60;98.00;;;;;;5011425;28;20519;-63
2023/09/19 10:45:49;;;;;;;2.87;1.70;;;21.80;98.00;;;;;;5011348;28;20454;-63
2023/09/19 10:48:19;;;;;;;3.30;2.13;;;22.30;98.00;;;;;;5011054;28;20474;-63
2023/09/19 10:50:50;;;;;;;3.20;1.90;;;22.50;98.00;;;;;;5011542;28;20456;-63
2023/09/19 10:53:19;;;;;;;2.30;1.90;;;22.40;98.00;;;;;;5011170;28;20463;-63
2023/09/19 10:55:53;;;;;;;4.70;2.00;;;22.20;98.00;;;;;;5011363;28;20623;-63
2023/09/19 10:58:39;;;;;;;2.93;2.07;;;21.90;98.00;;;;;;5010170;28;20454;-63
2023/09/19 11:01:12;;;;;;;2.40;1.80;;;21.80;98.00;;;;;;5011230;28;20531;-63
2023/09/19 11:03:43;;;;;;;2.80;2.20;;;21.70;98.00;;;;;;5010117;28;20463;-63
2023/09/19 11:06:16;;;;;;;2.60;2.00;;;21.90;98.00;;;;;;5011244;28;20480;-63
2023/09/19 11:09:22;;;;;;;2.47;1.87;;;21.90;98.00;;;;;;5009758;28;20483;-63
2023/09/19 11:11:54;;;;;;;2.50;1.93;;;21.80;98.00;;;;;;5011066;28;20452;-63
2023/09/19 11:14:38;;;;;;;2.80;2.17;;;22.10;98.00;;;;;;5010936;28;20448;-63
2023/09/19 11:17:37;;;;;;;2.17;1.83;;;22.30;98.00;;;;;;5011354;28;20455;-63
2023/09/19 11:20:41;;;;;;;2.10;1.80;;;22.80;98.00;;;;;;4976811;28;20542;-63
2023/09/19 11:23:26;;;;;;;2.20;1.87;;;23.60;98.00;;;;;;4989607;28;20455;-63
2023/09/19 11:25:54;;;;;;;2.30;1.90;;;24.10;98.00;;;;;;5010944;28;20455;-63
2023/09/19 11:28:36;;;;;;;3.37;1.90;;;24.40;98.00;;;;;;5011065;28;20602;-63
2023/09/19 11:31:55;;;;;;;3.30;1.80;;;25.00;98.00;;;;;;5011018;28;20539;-63
2023/09/19 11:34:48;;;;;;;3.23;2.10;;;25.00;97.90;;;;;;5010855;28;20447;-63
2023/09/19 11:38:06;;;;;;;3.30;1.90;;;25.40;98.00;;;;;;5010857;28;20769;-63
2023/09/19 11:40:35;;;;;;;2.30;1.90;;;25.20;96.40;;;;;;5012261;28;21024;-63
2023/09/19 11:43:34;;;;;;;3.43;1.90;;;24.80;98.00;;;;;;5013245;28;20447;-62
2023/09/19 11:46:10;;;;;;;3.47;1.90;;;24.80;97.10;;;;;;5014634;28;20460;-63
2023/09/19 11:48:42;;;;;;;4.40;2.00;;;25.10;97.80;;;;;;5014608;28;20466;-62
2023/09/19 11:51:19;;;;;;;4.07;2.03;;;25.40;96.80;;;;;;5014613;28;20448;-63
2023/09/19 11:56:14;;;;;;;2.60;1.73;;;25.70;95.50;;;;;;5011863;28;20976;-65
2023/09/19 11:58:42;;;;;;;2.70;1.80;;;25.80;96.40;;;;;;5014569;28;20470;-64
2023/09/19 12:01:19;;;;;;;1.83;1.73;;;25.50;95.20;;;;;;5014193;28;20542;-64
2023/09/19 12:03:49;;;;;;;2.43;1.80;;;25.00;95.70;;;;;;5014381;28;20459;-64
2023/09/19 12:06:18;;;;;;;3.50;2.17;;;24.70;96.50;;;;;;5014098;28;20479;-63
2023/09/19 12:08:47;;;;;;;2.90;1.90;;;24.30;96.60;;;;;;5013803;28;20456;-63
2023/09/19 12:11:16;;;;;;;3.50;2.00;;;24.50;96.50;;;;;;5014282;28;20459;-63
2023/09/19 12:13:46;;;;;;;3.83;1.97;;;24.70;97.10;;;;;;5014103;28;20447;-64
2023/09/19 12:16:17;;;;;;;2.27;1.83;;;24.50;95.60;;;;;;5013662;28;20459;-64
2023/09/19 12:18:46;;;;;;;4.80;2.10;;;24.00;95.40;;;;;;5014253;28;20506;-64
2023/09/19 12:21:31;;;;;;;2.43;1.90;;;24.20;96.40;;;;;;5013651;28;20443;-64
2023/09/19 12:24:13;;;;;;;2.40;1.60;;;24.30;95.80;;;;;;5014385;28;20451;-64
2023/09/19 12:26:43;;;;;;;2.47;1.60;;;24.20;96.80;;;;;;5014390;28;20968;-64
2023/09/19 12:29:18;;;;;;;3.23;2.00;;;24.60;97.40;;;;;;5014030;28;20490;-64
2023/09/19 12:31:51;;;;;;;3.43;1.83;;;25.00;94.10;;;;;;5014473;28;20569;-64
2023/09/19 12:34:21;;;;;;;2.80;1.80;;;25.40;94.50;;;;;;5014201;28;20542;-64
2023/09/19 12:37:06;;;;;;;3.97;2.07;;;25.90;93.50;;;;;;5014344;28;20490;-65
2023/09/19 12:39:33;;;;;;;1.90;1.60;;;25.80;91.70;;;;;;5017326;28;20486;-64
2023/09/19 12:42:04;;;;;;;2.63;1.90;;;25.30;92.50;;;;;;5033623;28;20457;-65
2023/09/19 12:44:32;;;;;;;5.47;2.00;;;25.20;95.20;;;;;;5016598;28;20538;-65
2023/09/19 12:47:01;;;;;;;2.80;1.90;;;25.60;93.10;;;;;;5033942;28;20933;-64
2023/09/19 12:49:28;;;;;;;2.67;1.70;;;25.90;92.60;;;;;;5033204;28;21007;-64
2023/09/19 12:52:00;;;;;;;2.87;2.00;;;26.30;93.20;;;;;;5032105;28;20455;-64
2023/09/19 12:54:39;;;;;;;3.67;1.70;;;26.70;92.20;;;;;;5033032;28;20493;-65
2023/09/19 12:57:06;;;;;;;2.23;2.13;;;26.90;92.80;;;;;;5015886;28;20549;-65
2023/09/19 12:59:36;;;;;;;2.50;1.97;;;26.90;89.20;;;;;;5033487;28;20532;-64
2023/09/19 13:02:13;;;;;;;2.83;2.03;;;27.10;89.00;;;;;;5033657;28;20465;-64
2023/09/19 13:04:43;;;;;;;2.47;1.87;;;26.90;90.40;;;;;;5033335;28;20825;-64
2023/09/19 13:07:42;;;;;;;1.87;1.70;;;27.20;90.80;;;;;;5032894;28;20461;-65
2023/09/19 13:10:10;;;;;;;2.23;1.83;;;27.30;89.60;;;;;;5032811;28;20514;-65
2023/09/19 13:12:42;;;;;;;2.10;1.80;;;27.20;90.50;;;;;;5032803;28;20451;-65